Plain City, OH

5:45 PM EST on January 26, 2015 (GMT -0500)
StormOhio | Change Station
CLOSE
Current Station
Personal Weather Station
Location: Plain City, OH
Elevation: 928 ft
Nearby Weather Stations

Elev 928 ft 40.10 °N, 83.26 °W | Updated 1 second ago

Partly Cloudy
Partly Cloudy
15.5 °F
Feels Like 15 °F
N
2.0
Wind Variable Wind from NNW
Gusts 4.0 mph

Today
High -- | Low -- °F
--% Chance of Precip.
Yesterday
High -- | Low -- °F
Precip. -- in
7:47 AM 5:44 PM
Waxing Crescent, 47% visible
Pressure 29.90 in
Visibility 10.0 miles
Clouds Clear
Windchill 15 °F
Dew Point 12 °F
Humidity 84%
Rainfall 0.02 in
Snow Depth Not available.
UV 0 out of 12
Pollen .10 out of 12
Air Quality Not available.
Flu Activity Not available.
METAR KMRT 262213Z AUTO 36005KT 10SM CLR M09/M12 A2990 RMK AO2 T10921124

More Conditions Fewer Conditions

Pressure 29.90 in
Visibility 10.0 miles
Clouds Clear
Windchill 15 °F
Dew Point 12 °F
Humidity 84%
Rainfall 0.02 in
Snow Depth Not available.
UV 0 out of 12
Pollen .10 out of 12
Air Quality Not available.
Flu Activity Not available.
METAR KMRT 262213Z AUTO 36005KT 10SM CLR M09/M12 A2990 RMK AO2 T10921124

More Conditions Fewer Conditions

10-Day Weather Forecast

Almanac

Astronomy

Jan. 26, 2015 Rise Set
Actual Time
Civil Twilight
Nautical Twilight
Astronomical Twilight
Moon
Length of Visible Light
Length of Day
Tomorrow will be .
, % of the Moon is Illuminated

Today's Extremes

State Highs State Lows

Community

WunderPhotos

Upload Photos

1,790,387 photos uploaded!

WunderBlogs® & News

Nearby

Air Quality

  Air Quality AQ Index Pollutant
Not available.

Snow Depth

Station Depth Elevation

Earthquake Activity

City Distance Mag. Time & Date
Minimum magnitude displayed is 2.5.

Coastal Water Temperatures

Place Temperature

Nearby Weather Stations